sensor_id;sensor_type;location;lat;lon;timestamp;pressure;altitude;pressure_sealevel;temperature;humidity
75536;BME280;64119;52.070;20.804;2023-04-01T00:01:13;98473.74;;;9.29;91.69
75536;BME280;64119;52.070;20.804;2023-04-01T00:03:42;98458.88;;;9.25;91.86
75536;BME280;64119;52.070;20.804;2023-04-01T00:06:13;98463.94;;;9.24;92.08
75536;BME280;64119;52.070;20.804;2023-04-01T00:08:41;98464.33;;;9.23;91.57
75536;BME280;64119;52.070;20.804;2023-04-01T00:11:08;98462.65;;;9.21;91.43
75536;BME280;64119;52.070;20.804;2023-04-01T00:13:36;98465.02;;;9.20;91.38
75536;BME280;64119;52.070;20.804;2023-04-01T00:16:04;98463.19;;;9.18;91.64
75536;BME280;64119;52.070;20.804;2023-04-01T00:18:47;98461.61;;;9.17;91.81
75536;BME280;64119;52.070;20.804;2023-04-01T00:21:15;98456.35;;;9.15;91.56
75536;BME280;64119;52.070;20.804;2023-04-01T00:23:43;98458.77;;;9.13;91.53
75536;BME280;64119;52.070;20.804;2023-04-01T00:26:11;98457.73;;;9.12;91.46
75536;BME280;64119;52.070;20.804;2023-04-01T00:28:40;98460.61;;;9.10;91.55
75536;BME280;64119;52.070;20.804;2023-04-01T00:31:09;98457.45;;;9.07;91.54
75536;BME280;64119;52.070;20.804;2023-04-01T00:33:38;98456.70;;;9.05;91.19
75536;BME280;64119;52.070;20.804;2023-04-01T00:36:19;98451.83;;;9.01;91.44
75536;BME280;64119;52.070;20.804;2023-04-01T00:38:48;98451.18;;;8.98;91.17
75536;BME280;64119;52.070;20.804;2023-04-01T00:41:16;98452.25;;;8.94;91.64
75536;BME280;64119;52.070;20.804;2023-04-01T00:43:47;98451.67;;;8.91;91.37
75536;BME280;64119;52.070;20.804;2023-04-01T00:46:15;98449.60;;;8.88;91.64
75536;BME280;64119;52.070;20.804;2023-04-01T00:48:47;98450.24;;;8.87;91.90
75536;BME280;64119;52.070;20.804;2023-04-01T00:51:19;98449.42;;;8.84;91.70
75536;BME280;64119;52.070;20.804;2023-04-01T00:53:50;98452.48;;;8.82;91.59
75536;BME280;64119;52.070;20.804;2023-04-01T00:56:24;98456.41;;;8.81;91.61
75536;BME280;64119;52.070;20.804;2023-04-01T00:58:59;98454.95;;;8.80;91.77
75536;BME280;64119;52.070;20.804;2023-04-01T01:01:29;98453.44;;;8.78;92.03
75536;BME280;64119;52.070;20.804;2023-04-01T01:03:58;98450.27;;;8.78;91.94
75536;BME280;64119;52.070;20.804;2023-04-01T01:06:47;98447.45;;;8.77;91.69
75536;BME280;64119;52.070;20.804;2023-04-01T01:09:32;98442.75;;;8.74;91.56
75536;BME280;64119;52.070;20.804;2023-04-01T01:12:10;98446.08;;;8.72;92.01
75536;BME280;64119;52.070;20.804;2023-04-01T01:17:22;98452.77;;;8.71;91.42
75536;BME280;64119;52.070;20.804;2023-04-01T01:20:19;98451.51;;;8.70;92.17
75536;BME280;64119;52.070;20.804;2023-04-01T01:28:50;98455.74;;;8.69;91.51
75536;BME280;64119;52.070;20.804;2023-04-01T01:36:59;98459.79;;;8.68;91.60
75536;BME280;64119;52.070;20.804;2023-04-01T01:39:31;98468.83;;;8.68;91.65
75536;BME280;64119;52.070;20.804;2023-04-01T01:42:04;98465.69;;;8.68;91.71
75536;BME280;64119;52.070;20.804;2023-04-01T01:44:34;98464.09;;;8.67;91.88
75536;BME280;64119;52.070;20.804;2023-04-01T01:47:03;98460.95;;;8.66;91.79
75536;BME280;64119;52.070;20.804;2023-04-01T01:49:33;98460.59;;;8.66;91.45
75536;BME280;64119;52.070;20.804;2023-04-01T01:52:03;98454.89;;;8.67;91.86
75536;BME280;64119;52.070;20.804;2023-04-01T01:54:31;98447.85;;;8.67;91.58
75536;BME280;64119;52.070;20.804;2023-04-01T01:57:07;98444.33;;;8.68;91.99
75536;BME280;64119;52.070;20.804;2023-04-01T01:59:43;98439.76;;;8.67;92.01
75536;BME280;64119;52.070;20.804;2023-04-01T02:02:19;98436.02;;;8.67;91.82
75536;BME280;64119;52.070;20.804;2023-04-01T02:04:49;98435.13;;;8.67;92.12
75536;BME280;64119;52.070;20.804;2023-04-01T02:07:25;98434.55;;;8.67;92.13
75536;BME280;64119;52.070;20.804;2023-04-01T02:09:54;98432.25;;;8.66;92.05
75536;BME280;64119;52.070;20.804;2023-04-01T02:12:23;98432.87;;;8.64;91.92
75536;BME280;64119;52.070;20.804;2023-04-01T02:17:24;98436.42;;;8.61;91.89
75536;BME280;64119;52.070;20.804;2023-04-01T02:19:59;98433.52;;;8.58;92.25
75536;BME280;64119;52.070;20.804;2023-04-01T02:22:32;98434.65;;;8.56;92.32
75536;BME280;64119;52.070;20.804;2023-04-01T02:25:05;98428.52;;;8.54;91.95
75536;BME280;64119;52.070;20.804;2023-04-01T02:27:34;98427.32;;;8.53;92.05
75536;BME280;64119;52.070;20.804;2023-04-01T02:30:02;98422.64;;;8.51;92.18
75536;BME280;64119;52.070;20.804;2023-04-01T02:32:31;98423.85;;;8.52;92.26
75536;BME280;64119;52.070;20.804;2023-04-01T02:35:01;98422.19;;;8.51;92.34
75536;BME280;64119;52.070;20.804;2023-04-01T02:37:33;98427.98;;;8.51;92.34
75536;BME280;64119;52.070;20.804;2023-04-01T02:40:05;98428.29;;;8.50;92.67
75536;BME280;64119;52.070;20.804;2023-04-01T02:42:37;98431.56;;;8.50;92.44
75536;BME280;64119;52.070;20.804;2023-04-01T02:45:06;98432.83;;;8.48;92.31
75536;BME280;64119;52.070;20.804;2023-04-01T02:47:34;98434.96;;;8.47;92.49
75536;BME280;64119;52.070;20.804;2023-04-01T02:50:03;98435.30;;;8.47;92.14
75536;BME280;64119;52.070;20.804;2023-04-01T02:52:31;98436.39;;;8.47;92.37
75536;BME280;64119;52.070;20.804;2023-04-01T02:54:59;98438.36;;;8.48;92.42
75536;BME280;64119;52.070;20.804;2023-04-01T02:57:27;98438.48;;;8.49;91.74
75536;BME280;64119;52.070;20.804;2023-04-01T02:59:56;98435.39;;;8.49;92.50
75536;BME280;64119;52.070;20.804;2023-04-01T03:02:23;98437.15;;;8.47;92.51
75536;BME280;64119;52.070;20.804;2023-04-01T03:04:52;98442.34;;;8.46;92.17
75536;BME280;64119;52.070;20.804;2023-04-01T03:07:20;98447.88;;;8.45;92.44
75536;BME280;64119;52.070;20.804;2023-04-01T03:09:48;98449.14;;;8.45;92.60
75536;BME280;64119;52.070;20.804;2023-04-01T03:12:16;98451.52;;;8.45;92.56
75536;BME280;64119;52.070;20.804;2023-04-01T03:14:47;98451.46;;;8.46;92.73
75536;BME280;64119;52.070;20.804;2023-04-01T03:17:15;98452.11;;;8.46;92.60
75536;BME280;64119;52.070;20.804;2023-04-01T03:19:43;98451.30;;;8.47;92.48
75536;BME280;64119;52.070;20.804;2023-04-01T03:22:11;98455.73;;;8.48;92.19
75536;BME280;64119;52.070;20.804;2023-04-01T03:24:39;98461.85;;;8.48;91.93
75536;BME280;64119;52.070;20.804;2023-04-01T03:27:07;98466.61;;;8.50;91.99
75536;BME280;64119;52.070;20.804;2023-04-01T03:29:34;98465.56;;;8.50;92.14
75536;BME280;64119;52.070;20.804;2023-04-01T03:32:02;98464.70;;;8.52;92.07
75536;BME280;64119;52.070;20.804;2023-04-01T03:34:31;98463.84;;;8.53;92.21
75536;BME280;64119;52.070;20.804;2023-04-01T03:36:59;98471.43;;;8.54;92.43
75536;BME280;64119;52.070;20.804;2023-04-01T03:39:26;98466.22;;;8.55;92.05
75536;BME280;64119;52.070;20.804;2023-04-01T03:41:55;98473.84;;;8.57;92.48
75536;BME280;64119;52.070;20.804;2023-04-01T03:44:23;98471.63;;;8.57;91.93
75536;BME280;64119;52.070;20.804;2023-04-01T03:46:51;98472.23;;;8.58;92.60
75536;BME280;64119;52.070;20.804;2023-04-01T03:49:19;98472.04;;;8.59;92.42
75536;BME280;64119;52.070;20.804;2023-04-01T03:51:46;98476.70;;;8.59;92.69
75536;BME280;64119;52.070;20.804;2023-04-01T03:54:14;98473.75;;;8.60;92.15
75536;BME280;64119;52.070;20.804;2023-04-01T03:56:43;98475.94;;;8.60;92.15
75536;BME280;64119;52.070;20.804;2023-04-01T03:59:12;98479.29;;;8.59;92.35
75536;BME280;64119;52.070;20.804;2023-04-01T04:01:40;98482.81;;;8.60;92.54
75536;BME280;64119;52.070;20.804;2023-04-01T04:04:11;98482.04;;;8.61;92.19
75536;BME280;64119;52.070;20.804;2023-04-01T04:06:40;98483.84;;;8.59;92.34
75536;BME280;64119;52.070;20.804;2023-04-01T04:09:08;98488.80;;;8.60;92.25
75536;BME280;64119;52.070;20.804;2023-04-01T04:11:35;98491.04;;;8.59;92.38
75536;BME280;64119;52.070;20.804;2023-04-01T04:14:03;98494.01;;;8.59;92.41
75536;BME280;64119;52.070;20.804;2023-04-01T04:16:31;98494.70;;;8.58;92.53
75536;BME280;64119;52.070;20.804;2023-04-01T04:19:02;98498.35;;;8.56;92.01
75536;BME280;64119;52.070;20.804;2023-04-01T04:21:30;98499.94;;;8.56;92.46
75536;BME280;64119;52.070;20.804;2023-04-01T04:24:00;98501.54;;;8.55;92.15
75536;BME280;64119;52.070;20.804;2023-04-01T04:26:33;98504.91;;;8.55;92.19
75536;BME280;64119;52.070;20.804;2023-04-01T04:29:02;98504.39;;;8.55;92.31
75536;BME280;64119;52.070;20.804;2023-04-01T04:31:31;98505.70;;;8.54;92.26
75536;BME280;64119;52.070;20.804;2023-04-01T04:34:00;98506.55;;;8.55;92.56
75536;BME280;64119;52.070;20.804;2023-04-01T04:36:29;98503.39;;;8.55;92.21
75536;BME280;64119;52.070;20.804;2023-04-01T04:38:57;98505.57;;;8.55;92.39
75536;BME280;64119;52.070;20.804;2023-04-01T04:41:29;98500.88;;;8.56;92.50
75536;BME280;64119;52.070;20.804;2023-04-01T04:43:57;98502.66;;;8.57;92.37
75536;BME280;64119;52.070;20.804;2023-04-01T04:46:26;98504.69;;;8.60;92.32
75536;BME280;64119;52.070;20.804;2023-04-01T04:48:59;98505.45;;;8.62;92.15
75536;BME280;64119;52.070;20.804;2023-04-01T04:51:27;98508.44;;;8.63;92.17
75536;BME280;64119;52.070;20.804;2023-04-01T04:53:55;98509.72;;;8.65;92.05
75536;BME280;64119;52.070;20.804;2023-04-01T04:56:31;98513.91;;;8.66;92.40
75536;BME280;64119;52.070;20.804;2023-04-01T04:59:06;98517.84;;;8.66;92.14
75536;BME280;64119;52.070;20.804;2023-04-01T05:01:45;98518.50;;;8.67;92.28
75536;BME280;64119;52.070;20.804;2023-04-01T05:04:14;98514.35;;;8.69;92.11
75536;BME280;64119;52.070;20.804;2023-04-01T05:06:42;98519.52;;;8.70;92.31
75536;BME280;64119;52.070;20.804;2023-04-01T05:09:11;98516.48;;;8.71;92.13
75536;BME280;64119;52.070;20.804;2023-04-01T05:11:39;98516.14;;;8.72;92.32
75536;BME280;64119;52.070;20.804;2023-04-01T05:14:15;98512.31;;;8.73;92.38
75536;BME280;64119;52.070;20.804;2023-04-01T05:16:47;98513.63;;;8.75;92.20
75536;BME280;64119;52.070;20.804;2023-04-01T05:19:15;98510.14;;;8.77;92.35
75536;BME280;64119;52.070;20.804;2023-04-01T05:21:43;98512.81;;;8.82;92.40
75536;BME280;64119;52.070;20.804;2023-04-01T05:24:11;98511.05;;;8.87;91.98
75536;BME280;64119;52.070;20.804;2023-04-01T05:26:39;98515.16;;;8.90;92.25
75536;BME280;64119;52.070;20.804;2023-04-01T05:29:07;98513.38;;;8.94;92.36
75536;BME280;64119;52.070;20.804;2023-04-01T05:31:35;98514.48;;;8.98;91.96
75536;BME280;64119;52.070;20.804;2023-04-01T05:34:03;98514.95;;;9.00;91.77
75536;BME280;64119;52.070;20.804;2023-04-01T05:36:31;98519.93;;;9.05;92.24
75536;BME280;64119;52.070;20.804;2023-04-01T05:38:59;98520.58;;;9.12;92.17
75536;BME280;64119;52.070;20.804;2023-04-01T05:41:28;98517.48;;;9.18;91.88
75536;BME280;64119;52.070;20.804;2023-04-01T05:43:56;98517.64;;;9.24;91.99
75536;BME280;64119;52.070;20.804;2023-04-01T05:46:39;98516.73;;;9.30;91.80
75536;BME280;64119;52.070;20.804;2023-04-01T05:49:36;98514.91;;;9.33;91.89
75536;BME280;64119;52.070;20.804;2023-04-01T05:52:04;98518.25;;;9.36;91.97
75536;BME280;64119;52.070;20.804;2023-04-01T05:54:34;98518.27;;;9.39;91.53
75536;BME280;64119;52.070;20.804;2023-04-01T05:57:02;98520.81;;;9.41;91.52
75536;BME280;64119;52.070;20.804;2023-04-01T05:59:30;98521.10;;;9.42;91.63
75536;BME280;64119;52.070;20.804;2023-04-01T06:01:59;98521.80;;;9.44;91.79
75536;BME280;64119;52.070;20.804;2023-04-01T06:04:32;98522.20;;;9.50;91.71
75536;BME280;64119;52.070;20.804;2023-04-01T06:07:16;98525.67;;;9.52;91.83
75536;BME280;64119;52.070;20.804;2023-04-01T06:09:44;98527.27;;;9.57;91.42
75536;BME280;64119;52.070;20.804;2023-04-01T06:15:36;98529.80;;;9.65;91.17
75536;BME280;64119;52.070;20.804;2023-04-01T06:21:39;98529.11;;;9.77;90.97
75536;BME280;64119;52.070;20.804;2023-04-01T06:36:02;98539.89;;;9.76;90.49
75536;BME280;64119;52.070;20.804;2023-04-01T06:47:34;98542.13;;;9.81;90.17
75536;BME280;64119;52.070;20.804;2023-04-01T06:53:52;98539.63;;;9.85;89.91
75536;BME280;64119;52.070;20.804;2023-04-01T06:56:52;98544.80;;;9.85;89.67
75536;BME280;64119;52.070;20.804;2023-04-01T06:59:32;98536.55;;;9.85;89.58
75536;BME280;64119;52.070;20.804;2023-04-01T07:04:50;98542.00;;;9.91;89.36
75536;BME280;64119;52.070;20.804;2023-04-01T07:10:17;98540.14;;;9.95;89.04
75536;BME280;64119;52.070;20.804;2023-04-01T07:22:29;98538.42;;;10.34;88.79
75536;BME280;64119;52.070;20.804;2023-04-01T07:25:23;98538.54;;;10.39;88.73
75536;BME280;64119;52.070;20.804;2023-04-01T07:28:12;98538.33;;;10.41;88.64
75536;BME280;64119;52.070;20.804;2023-04-01T07:39:09;98538.95;;;10.41;88.67
75536;BME280;64119;52.070;20.804;2023-04-01T07:44:58;98539.96;;;10.47;88.80
75536;BME280;64119;52.070;20.804;2023-04-01T07:47:31;98539.62;;;10.49;88.94
75536;BME280;64119;52.070;20.804;2023-04-01T07:50:17;98538.00;;;10.55;88.65
75536;BME280;64119;52.070;20.804;2023-04-01T07:53:33;98542.04;;;10.61;88.49
75536;BME280;64119;52.070;20.804;2023-04-01T07:56:45;98545.86;;;10.71;88.12
75536;BME280;64119;52.070;20.804;2023-04-01T07:59:53;98548.83;;;10.74;87.90
75536;BME280;64119;52.070;20.804;2023-04-01T08:17:33;98553.06;;;11.51;85.44
75536;BME280;64119;52.070;20.804;2023-04-01T08:20:26;98554.89;;;11.51;84.92
75536;BME280;64119;52.070;20.804;2023-04-01T08:26:30;98563.52;;;11.54;85.17
75536;BME280;64119;52.070;20.804;2023-04-01T08:31:43;98562.45;;;11.47;84.75
75536;BME280;64119;52.070;20.804;2023-04-01T08:34:20;98570.20;;;11.44;84.84
75536;BME280;64119;52.070;20.804;2023-04-01T08:36:52;98565.34;;;11.46;84.47
75536;BME280;64119;52.070;20.804;2023-04-01T08:56:46;98579.21;;;11.35;83.96
75536;BME280;64119;52.070;20.804;2023-04-01T09:06:25;98578.12;;;11.25;84.14
75536;BME280;64119;52.070;20.804;2023-04-01T09:08:46;98580.39;;;11.22;83.69
75536;BME280;64119;52.070;20.804;2023-04-01T09:11:44;98582.73;;;11.13;83.80
75536;BME280;64119;52.070;20.804;2023-04-01T09:17:59;98584.90;;;10.99;83.60
75536;BME280;64119;52.070;20.804;2023-04-01T09:20:44;98586.36;;;10.92;83.74
75536;BME280;64119;52.070;20.804;2023-04-01T09:32:01;98594.41;;;10.92;84.36
75536;BME280;64119;52.070;20.804;2023-04-01T09:34:53;98595.98;;;10.87;84.60
75536;BME280;64119;52.070;20.804;2023-04-01T09:46:03;98591.83;;;10.49;86.55
75536;BME280;64119;52.070;20.804;2023-04-01T10:03:01;98606.70;;;10.11;87.98
75536;BME280;64119;52.070;20.804;2023-04-01T10:14:03;98614.09;;;10.22;88.27
75536;BME280;64119;52.070;20.804;2023-04-01T10:25:05;98620.13;;;11.26;87.46
75536;BME280;64119;52.070;20.804;2023-04-01T10:36:56;98620.66;;;11.15;86.39
75536;BME280;64119;52.070;20.804;2023-04-01T10:39:37;98621.23;;;11.03;86.60
75536;BME280;64119;52.070;20.804;2023-04-01T10:51:31;98626.05;;;10.41;87.56
75536;BME280;64119;52.070;20.804;2023-04-01T11:32:52;98624.09;;;11.63;84.81
75536;BME280;64119;52.070;20.804;2023-04-01T11:40:56;98627.89;;;11.61;83.34
75536;BME280;64119;52.070;20.804;2023-04-01T11:47:03;98631.17;;;11.26;82.60
75536;BME280;64119;52.070;20.804;2023-04-01T11:58:02;98634.64;;;11.06;84.58
75536;BME280;64119;52.070;20.804;2023-04-01T12:03:56;98635.31;;;11.11;83.87
75536;BME280;64119;52.070;20.804;2023-04-01T12:15:37;98637.55;;;11.26;83.36
75536;BME280;64119;52.070;20.804;2023-04-01T12:18:27;98640.39;;;11.35;83.09
75536;BME280;64119;52.070;20.804;2023-04-01T12:26:22;98644.66;;;11.64;82.48
75536;BME280;64119;52.070;20.804;2023-04-01T12:37:17;98649.87;;;11.99;81.56
75536;BME280;64119;52.070;20.804;2023-04-01T12:45:49;98650.90;;;12.03;80.83
75536;BME280;64119;52.070;20.804;2023-04-01T12:51:27;98647.95;;;12.17;79.33
75536;BME280;64119;52.070;20.804;2023-04-01T12:56:44;98647.56;;;12.38;79.69
75536;BME280;64119;52.070;20.804;2023-04-01T12:59:27;98642.67;;;12.56;79.85
75536;BME280;64119;52.070;20.804;2023-04-01T13:02:01;98642.79;;;12.89;79.27
75536;BME280;64119;52.070;20.804;2023-04-01T13:23:24;98650.67;;;15.29;72.95
75536;BME280;64119;52.070;20.804;2023-04-01T13:29:31;98652.02;;;15.61;68.91
75536;BME280;64119;52.070;20.804;2023-04-01T13:42:47;98659.39;;;14.97;70.98
75536;BME280;64119;52.070;20.804;2023-04-01T13:45:23;98663.02;;;14.83;72.00
75536;BME280;64119;52.070;20.804;2023-04-01T13:58:56;98680.11;;;13.59;74.85
75536;BME280;64119;52.070;20.804;2023-04-01T14:01:39;98683.45;;;13.40;75.20
75536;BME280;64119;52.070;20.804;2023-04-01T14:09:54;98689.38;;;12.82;76.39
75536;BME280;64119;52.070;20.804;2023-04-01T14:27:12;98710.27;;;11.80;79.29
75536;BME280;64119;52.070;20.804;2023-04-01T14:30:30;98715.02;;;11.55;81.44
75536;BME280;64119;52.070;20.804;2023-04-01T14:38:02;98719.85;;;11.12;84.27
75536;BME280;64119;52.070;20.804;2023-04-01T14:41:12;98728.96;;;11.03;84.65
75536;BME280;64119;52.070;20.804;2023-04-01T14:49:36;98743.52;;;10.87;83.85
75536;BME280;64119;52.070;20.804;2023-04-01T14:52:35;98743.40;;;10.80;84.54
75536;BME280;64119;52.070;20.804;2023-04-01T14:55:23;98749.11;;;10.75;85.14
75536;BME280;64119;52.070;20.804;2023-04-01T15:14:21;98775.77;;;10.29;85.76
75536;BME280;64119;52.070;20.804;2023-04-01T15:22:34;98785.05;;;10.23;85.55
75536;BME280;64119;52.070;20.804;2023-04-01T15:25:27;98790.73;;;10.20;85.78
75536;BME280;64119;52.070;20.804;2023-04-01T15:28:18;98798.27;;;10.17;86.06
75536;BME280;64119;52.070;20.804;2023-04-01T15:30:55;98802.28;;;10.11;86.35
75536;BME280;64119;52.070;20.804;2023-04-01T15:33:37;98806.32;;;10.05;86.28
75536;BME280;64119;52.070;20.804;2023-04-01T15:40:03;98812.80;;;9.97;86.48
75536;BME280;64119;52.070;20.804;2023-04-01T15:45:31;98820.78;;;9.87;86.73
75536;BME280;64119;52.070;20.804;2023-04-01T15:51:28;98831.65;;;9.84;87.18
75536;BME280;64119;52.070;20.804;2023-04-01T16:26:44;98886.43;;;9.57;87.47
75536;BME280;64119;52.070;20.804;2023-04-01T16:29:24;98888.77;;;9.55;87.42
75536;BME280;64119;52.070;20.804;2023-04-01T16:32:14;98892.71;;;9.56;87.45
75536;BME280;64119;52.070;20.804;2023-04-01T16:38:46;98902.20;;;9.56;86.98
75536;BME280;64119;52.070;20.804;2023-04-01T16:46:38;98912.69;;;9.55;87.26
75536;BME280;64119;52.070;20.804;2023-04-01T16:54:35;98935.58;;;9.40;87.52
75536;BME280;64119;52.070;20.804;2023-04-01T17:02:10;98950.11;;;9.32;87.74
75536;BME280;64119;52.070;20.804;2023-04-01T17:04:45;98950.35;;;9.29;87.96
75536;BME280;64119;52.070;20.804;2023-04-01T17:29:59;98985.42;;;9.11;88.26
75536;BME280;64119;52.070;20.804;2023-04-01T17:35:39;98996.67;;;9.09;88.18
75536;BME280;64119;52.070;20.804;2023-04-01T17:47:13;99020.60;;;9.01;87.67
75536;BME280;64119;52.070;20.804;2023-04-01T17:52:45;99027.40;;;8.99;87.61
75536;BME280;64119;52.070;20.804;2023-04-01T17:57:59;99034.92;;;8.93;87.34
75536;BME280;64119;52.070;20.804;2023-04-01T18:01:21;99040.90;;;8.92;87.14
75536;BME280;64119;52.070;20.804;2023-04-01T18:06:19;99055.95;;;8.87;87.24
75536;BME280;64119;52.070;20.804;2023-04-01T18:19:54;99072.29;;;8.76;87.07
75536;BME280;64119;52.070;20.804;2023-04-01T18:22:46;99080.35;;;8.76;87.13
75536;BME280;64119;52.070;20.804;2023-04-01T18:33:48;99094.10;;;8.71;87.03
75536;BME280;64119;52.070;20.804;2023-04-01T18:39:17;99099.12;;;8.65;87.19
75536;BME280;64119;52.070;20.804;2023-04-01T18:41:55;99107.76;;;8.62;86.90
75536;BME280;64119;52.070;20.804;2023-04-01T18:44:46;99114.75;;;8.55;87.00
75536;BME280;64119;52.070;20.804;2023-04-01T18:47:34;99121.09;;;8.51;87.08
75536;BME280;64119;52.070;20.804;2023-04-01T18:56:01;99130.07;;;8.42;87.38
75536;BME280;64119;52.070;20.804;2023-04-01T18:58:50;99131.48;;;8.41;87.39
75536;BME280;64119;52.070;20.804;2023-04-01T19:01:27;99133.36;;;8.37;87.58
75536;BME280;64119;52.070;20.804;2023-04-01T19:09:28;99147.49;;;8.36;87.51
75536;BME280;64119;52.070;20.804;2023-04-01T19:12:11;99148.14;;;8.32;87.36
75536;BME280;64119;52.070;20.804;2023-04-01T19:26:27;99179.68;;;8.15;87.41
75536;BME280;64119;52.070;20.804;2023-04-01T19:29:26;99182.41;;;8.12;87.79
75536;BME280;64119;52.070;20.804;2023-04-01T19:32:02;99182.20;;;8.11;87.85
75536;BME280;64119;52.070;20.804;2023-04-01T19:45:55;99205.83;;;8.02;88.11
75536;BME280;64119;52.070;20.804;2023-04-01T19:51:10;99209.48;;;7.97;88.11
75536;BME280;64119;52.070;20.804;2023-04-01T19:54:12;99210.45;;;7.95;88.26
75536;BME280;64119;52.070;20.804;2023-04-01T19:57:11;99212.63;;;7.94;88.06
75536;BME280;64119;52.070;20.804;2023-04-01T20:00:11;99220.63;;;7.90;88.30
75536;BME280;64119;52.070;20.804;2023-04-01T20:06:02;99223.90;;;7.85;88.49
75536;BME280;64119;52.070;20.804;2023-04-01T20:17:19;99225.75;;;7.77;88.82
75536;BME280;64119;52.070;20.804;2023-04-01T20:20:01;99230.48;;;7.76;88.81
75536;BME280;64119;52.070;20.804;2023-04-01T20:25:30;99234.06;;;7.73;88.76
75536;BME280;64119;52.070;20.804;2023-04-01T20:42:12;99252.39;;;7.68;89.00
75536;BME280;64119;52.070;20.804;2023-04-01T20:45:06;99255.52;;;7.67;88.80
75536;BME280;64119;52.070;20.804;2023-04-01T21:01:55;99280.41;;;7.59;89.29
75536;BME280;64119;52.070;20.804;2023-04-01T21:20:38;99303.13;;;7.43;90.06
75536;BME280;64119;52.070;20.804;2023-04-01T21:34:25;99324.81;;;7.31;90.07
75536;BME280;64119;52.070;20.804;2023-04-01T21:37:10;99328.67;;;7.27;90.54
75536;BME280;64119;52.070;20.804;2023-04-01T21:42:42;99328.17;;;7.19;90.56
75536;BME280;64119;52.070;20.804;2023-04-01T21:51:27;99333.61;;;7.13;90.57
75536;BME280;64119;52.070;20.804;2023-04-01T22:11:20;99355.87;;;6.94;91.07
75536;BME280;64119;52.070;20.804;2023-04-01T22:19:26;99364.63;;;6.88;91.79
75536;BME280;64119;52.070;20.804;2023-04-01T22:27:46;99369.27;;;6.86;90.87
75536;BME280;64119;52.070;20.804;2023-04-01T22:30:27;99369.07;;;6.86;91.00
75536;BME280;64119;52.070;20.804;2023-04-01T22:33:07;99367.11;;;6.85;91.05
75536;BME280;64119;52.070;20.804;2023-04-01T22:35:53;99373.65;;;6.86;91.19
75536;BME280;64119;52.070;20.804;2023-04-01T22:41:28;99379.27;;;6.84;90.88
75536;BME280;64119;52.070;20.804;2023-04-01T22:44:01;99383.52;;;6.84;90.72
75536;BME280;64119;52.070;20.804;2023-04-01T22:46:55;99386.80;;;6.83;90.89
75536;BME280;64119;52.070;20.804;2023-04-01T22:49:48;99388.94;;;6.82;90.43
75536;BME280;64119;52.070;20.804;2023-04-01T22:55:00;99393.27;;;6.73;90.17
75536;BME280;64119;52.070;20.804;2023-04-01T23:00:54;99398.73;;;6.72;89.92
75536;BME280;64119;52.070;20.804;2023-04-01T23:03:08;99403.95;;;6.69;90.02
75536;BME280;64119;52.070;20.804;2023-04-01T23:05:57;99404.52;;;6.66;90.07
75536;BME280;64119;52.070;20.804;2023-04-01T23:11:04;99410.00;;;6.63;90.05
75536;BME280;64119;52.070;20.804;2023-04-01T23:13:38;99411.55;;;6.63;89.86
75536;BME280;64119;52.070;20.804;2023-04-01T23:16:08;99415.04;;;6.61;89.98
75536;BME280;64119;52.070;20.804;2023-04-01T23:19:01;99414.09;;;6.59;89.69
75536;BME280;64119;52.070;20.804;2023-04-01T23:21:54;99417.52;;;6.57;89.70
75536;BME280;64119;52.070;20.804;2023-04-01T23:24:53;99418.23;;;6.56;89.40
75536;BME280;64119;52.070;20.804;2023-04-01T23:27:30;99422.14;;;6.54;89.48
75536;BME280;64119;52.070;20.804;2023-04-01T23:30:03;99421.98;;;6.55;89.29
75536;BME280;64119;52.070;20.804;2023-04-01T23:32:31;99422.64;;;6.54;89.25
75536;BME280;64119;52.070;20.804;2023-04-01T23:34:59;99427.16;;;6.53;89.09
75536;BME280;64119;52.070;20.804;2023-04-01T23:37:27;99426.02;;;6.53;89.11
75536;BME280;64119;52.070;20.804;2023-04-01T23:39:58;99431.54;;;6.53;88.83
75536;BME280;64119;52.070;20.804;2023-04-01T23:42:31;99432.65;;;6.51;88.78
75536;BME280;64119;52.070;20.804;2023-04-01T23:45:03;99439.54;;;6.51;88.75
75536;BME280;64119;52.070;20.804;2023-04-01T23:47:34;99443.22;;;6.50;88.82
75536;BME280;64119;52.070;20.804;2023-04-01T23:50:12;99448.33;;;6.51;88.93
75536;BME280;64119;52.070;20.804;2023-04-01T23:52:44;99453.87;;;6.50;88.71
75536;BME280;64119;52.070;20.804;2023-04-01T23:55:21;99459.24;;;6.50;88.86
75536;BME280;64119;52.070;20.804;2023-04-01T23:58:10;99460.41;;;6.48;88.59
